createdAt,value
2023-04-27T00:00:39.977Z,18.60
2023-04-27T00:03:32.086Z,17.90
2023-04-27T00:06:24.347Z,17.40
2023-04-27T00:09:16.518Z,16.10
2023-04-27T00:12:05.259Z,18.30
2023-04-27T00:14:57.222Z,19.00
2023-04-27T00:17:49.324Z,18.80
2023-04-27T00:20:41.391Z,16.10
2023-04-27T00:23:33.460Z,21.10
2023-04-27T00:26:26.798Z,20.50
2023-04-27T00:29:18.960Z,22.00
2023-04-27T00:31:53.576Z,19.90
2023-04-27T00:34:45.635Z,21.60
2023-04-27T00:37:24.946Z,17.70
2023-04-27T00:39:59.496Z,18.80
2023-04-27T00:42:51.635Z,22.80
2023-04-27T00:45:32.502Z,21.60
2023-04-27T00:48:24.922Z,22.70
2023-04-27T00:51:17.738Z,22.20
2023-04-27T00:54:10.530Z,21.10
2023-04-27T00:57:04.010Z,21.80
2023-04-27T00:59:56.335Z,19.30
2023-04-27T01:02:32.011Z,21.80
2023-04-27T01:05:25.403Z,21.30
2023-04-27T01:08:17.401Z,19.60
2023-04-27T01:11:09.370Z,20.50
2023-04-27T01:14:06.498Z,24.40
2023-04-27T01:16:58.540Z,21.20
2023-04-27T01:19:41.220Z,21.20
2023-04-27T01:22:33.265Z,24.40
2023-04-27T01:25:09.086Z,23.70
2023-04-27T01:28:01.119Z,24.70
2023-04-27T01:30:53.216Z,24.90
2023-04-27T01:33:46.234Z,22.20
2023-04-27T01:36:38.554Z,21.30
2023-04-27T01:39:30.705Z,22.10
2023-04-27T01:42:22.671Z,21.60
2023-04-27T01:45:15.426Z,20.60
2023-04-27T01:48:07.949Z,22.50
2023-04-27T01:50:59.991Z,19.90
2023-04-27T01:53:51.933Z,20.90
2023-04-27T01:56:43.898Z,22.80
2023-04-27T01:59:36.113Z,23.00
2023-04-27T02:02:28.275Z,20.60
2023-04-27T02:05:20.437Z,19.80
2023-04-27T02:08:12.414Z,23.40
2023-04-27T02:11:04.403Z,17.90
2023-04-27T02:13:56.356Z,18.60
2023-04-27T02:16:48.307Z,19.40
2023-04-27T02:19:40.312Z,19.60
2023-04-27T02:22:32.257Z,18.70
2023-04-27T02:25:24.720Z,21.90
2023-04-27T02:28:16.959Z,16.90
2023-04-27T02:31:09.347Z,18.50
2023-04-27T02:34:01.315Z,20.30
2023-04-27T02:36:53.300Z,19.10
2023-04-27T02:39:41.829Z,19.20
2023-04-27T02:42:33.830Z,20.10
2023-04-27T02:45:25.971Z,15.70
2023-04-27T02:48:17.948Z,19.00
2023-04-27T02:51:10.132Z,17.60
2023-04-27T02:54:02.216Z,16.10
2023-04-27T02:56:55.542Z,16.30
2023-04-27T02:59:47.481Z,16.40
2023-04-27T03:02:39.599Z,18.90
2023-04-27T03:05:31.949Z,16.90
2023-04-27T03:08:24.006Z,16.00
2023-04-27T03:11:16.084Z,14.70
2023-04-27T03:14:08.559Z,17.40
2023-04-27T03:16:45.980Z,18.10
2023-04-27T03:19:38.188Z,16.00
2023-04-27T03:22:30.222Z,16.00
2023-04-27T03:25:22.578Z,18.00
2023-04-27T03:28:14.537Z,18.50
2023-04-27T03:31:09.315Z,15.00
2023-04-27T03:34:01.581Z,14.90
2023-04-27T03:36:54.041Z,14.80
2023-04-27T03:39:46.003Z,14.90
2023-04-27T03:42:37.973Z,13.40
2023-04-27T03:45:30.076Z,16.10
2023-04-27T03:48:22.785Z,14.60
2023-04-27T03:51:15.016Z,18.50
2023-04-27T03:54:07.131Z,26.20
2023-04-27T03:56:59.117Z,25.80
2023-04-27T03:59:51.960Z,31.20
2023-04-27T04:02:44.509Z,28.70
2023-04-27T04:05:36.687Z,26.70
2023-04-27T04:08:28.712Z,28.30
2023-04-27T04:11:20.676Z,29.90
2023-04-27T04:14:12.635Z,23.90
2023-04-27T04:17:00.067Z,24.00
2023-04-27T04:19:52.062Z,19.00
2023-04-27T04:22:44.472Z,16.30
2023-04-27T04:25:36.448Z,15.90
2023-04-27T04:28:28.528Z,14.70
2023-04-27T04:31:21.685Z,13.20
2023-04-27T04:33:59.248Z,15.50
2023-04-27T04:36:52.204Z,13.20
2023-04-27T04:39:44.141Z,13.80
2023-04-27T04:42:36.973Z,14.40
2023-04-27T04:45:28.984Z,13.50
2023-04-27T04:48:22.203Z,10.70
2023-04-27T04:51:14.255Z,11.30
2023-04-27T04:54:06.469Z,13.10
2023-04-27T04:56:59.217Z,15.20
2023-04-27T04:59:36.900Z,14.80
2023-04-27T05:02:29.000Z,14.50
2023-04-27T05:05:21.300Z,15.70
2023-04-27T05:08:13.356Z,17.10
2023-04-27T05:10:53.103Z,12.60
2023-04-27T05:13:46.175Z,13.60
2023-04-27T05:16:38.166Z,12.50
2023-04-27T05:19:20.794Z,12.00
2023-04-27T05:22:12.765Z,11.50
2023-04-27T05:25:05.264Z,10.20
2023-04-27T05:27:47.436Z,10.90
2023-04-27T05:30:28.330Z,8.60
2023-04-27T05:33:13.913Z,9.60
2023-04-27T05:36:06.528Z,13.10
2023-04-27T05:38:58.699Z,11.50
2023-04-27T05:41:50.718Z,11.00
2023-04-27T05:44:43.173Z,10.10
2023-04-27T05:47:35.184Z,11.60
2023-04-27T05:50:27.458Z,7.60
2023-04-27T05:53:19.442Z,8.90
2023-04-27T05:56:12.676Z,10.30
2023-04-27T05:59:04.697Z,9.50
2023-04-27T06:01:56.947Z,11.60
2023-04-27T06:04:38.533Z,13.80
2023-04-27T06:07:13.637Z,11.70
2023-04-27T06:09:45.746Z,10.30
2023-04-27T06:12:38.164Z,11.60
2023-04-27T06:15:30.198Z,11.90
2023-04-27T06:18:22.123Z,10.60
2023-04-27T06:21:02.324Z,11.60
2023-04-27T06:23:54.391Z,11.10
2023-04-27T06:26:46.405Z,9.70
2023-04-27T06:29:38.398Z,12.40
2023-04-27T06:32:30.536Z,12.10
2023-04-27T06:35:22.786Z,8.60
2023-04-27T06:38:14.804Z,12.50
2023-04-27T06:41:07.120Z,9.80
2023-04-27T06:43:59.422Z,9.40
2023-04-27T06:46:51.549Z,10.70
2023-04-27T06:49:43.508Z,7.30
2023-04-27T06:52:35.742Z,11.10
2023-04-27T06:55:28.009Z,10.50
2023-04-27T06:58:20.109Z,8.80
2023-04-27T07:01:12.179Z,8.90
2023-04-27T07:03:58.870Z,8.00
2023-04-27T07:06:50.974Z,8.30
2023-04-27T07:09:43.005Z,9.00
2023-04-27T07:12:35.193Z,9.30
2023-04-27T07:15:27.782Z,8.80
2023-04-27T07:18:08.779Z,6.40
2023-04-27T07:20:50.990Z,6.70
2023-04-27T07:23:43.209Z,8.70
2023-04-27T07:26:35.324Z,7.80
2023-04-27T07:29:28.276Z,9.10
2023-04-27T07:32:21.390Z,6.90
2023-04-27T07:35:13.585Z,8.90
2023-04-27T07:38:05.553Z,5.10
2023-04-27T07:40:59.148Z,6.10
2023-04-27T07:43:51.799Z,7.70
2023-04-27T07:46:43.891Z,6.90
2023-04-27T07:49:35.966Z,5.10
2023-04-27T07:52:28.015Z,7.90
2023-04-27T07:55:20.041Z,7.50
2023-04-27T07:58:12.326Z,6.30
2023-04-27T08:01:04.410Z,5.50
2023-04-27T08:03:56.938Z,5.00
2023-04-27T08:06:35.635Z,6.40
2023-04-27T08:09:28.164Z,4.20
2023-04-27T08:12:09.598Z,4.90
2023-04-27T08:15:01.627Z,5.20
2023-04-27T08:17:53.645Z,4.30
2023-04-27T08:20:45.813Z,7.80
2023-04-27T08:23:38.840Z,6.20
2023-04-27T08:26:14.583Z,3.90
2023-04-27T08:29:19.547Z,4.80
2023-04-27T08:32:18.757Z,4.10
2023-04-27T08:35:11.553Z,4.60
2023-04-27T08:38:03.515Z,7.00
2023-04-27T08:40:48.696Z,7.00
2023-04-27T08:43:41.420Z,5.30
2023-04-27T08:46:33.553Z,5.10
2023-04-27T08:49:25.510Z,4.80
2023-04-27T08:52:18.749Z,3.80
2023-04-27T08:55:13.314Z,6.00
2023-04-27T08:58:07.045Z,5.70
2023-04-27T09:00:49.392Z,4.80
2023-04-27T09:03:42.667Z,2.60
2023-04-27T09:06:36.322Z,3.50
2023-04-27T09:09:11.196Z,7.50
2023-04-27T09:12:03.571Z,4.50
2023-04-27T09:15:03.651Z,6.20
2023-04-27T09:17:59.360Z,4.30
2023-04-27T09:20:33.532Z,4.20
2023-04-27T09:23:07.943Z,4.60
2023-04-27T09:26:01.568Z,6.30
2023-04-27T09:28:56.968Z,5.40
2023-04-27T09:31:49.057Z,3.30
2023-04-27T09:34:43.839Z,5.00
2023-04-27T09:37:36.035Z,5.10
2023-04-27T09:40:30.576Z,5.10
2023-04-27T09:43:23.978Z,5.30
2023-04-27T09:46:16.489Z,3.40
2023-04-27T09:49:08.903Z,4.10
2023-04-27T09:52:00.946Z,5.10
2023-04-27T09:54:54.614Z,3.30
2023-04-27T09:57:56.643Z,4.10
2023-04-27T10:01:05.908Z,4.50
2023-04-27T10:04:10.134Z,4.50
2023-04-27T10:07:01.385Z,4.70
2023-04-27T10:09:41.904Z,4.00
2023-04-27T10:12:37.651Z,3.30
2023-04-27T10:15:20.070Z,7.00
2023-04-27T10:18:12.395Z,3.90
2023-04-27T10:21:13.918Z,2.40
2023-04-27T10:24:10.952Z,3.70
2023-04-27T10:26:49.944Z,3.90
2023-04-27T10:29:43.815Z,2.10
2023-04-27T10:32:35.936Z,3.20
2023-04-27T10:35:36.811Z,2.20
2023-04-27T10:38:33.019Z,8.60
2023-04-27T10:41:36.824Z,5.40
2023-04-27T10:44:31.222Z,3.50
2023-04-27T10:47:24.313Z,4.80
2023-04-27T10:50:18.527Z,2.50
2023-04-27T10:53:10.805Z,3.00
2023-04-27T10:56:03.797Z,7.00
2023-04-27T10:58:56.193Z,4.70
2023-04-27T11:01:51.321Z,7.00
2023-04-27T11:07:34.524Z,2.80
2023-04-27T11:10:18.332Z,3.80
2023-04-27T11:13:00.895Z,4.70
2023-04-27T11:15:55.235Z,5.50
2023-04-27T11:18:47.306Z,5.20
2023-04-27T11:21:39.673Z,3.60
2023-04-27T11:24:31.797Z,6.10
2023-04-27T11:27:25.303Z,7.00
2023-04-27T11:30:24.557Z,6.80
2023-04-27T11:33:16.620Z,7.00
2023-04-27T11:36:19.145Z,5.10
2023-04-27T11:39:17.889Z,6.00
2023-04-27T11:42:28.458Z,5.00
2023-04-27T11:45:21.026Z,5.50
2023-04-27T11:48:17.097Z,7.50
2023-04-27T11:51:01.256Z,5.30
2023-04-27T11:53:53.424Z,5.30
2023-04-27T11:56:46.230Z,7.90
2023-04-27T11:59:38.334Z,10.50
2023-04-27T12:02:32.363Z,10.00
2023-04-27T12:05:24.967Z,22.00
2023-04-27T12:08:17.244Z,7.20
2023-04-27T12:10:49.087Z,7.20
2023-04-27T12:13:41.368Z,3.30
2023-04-27T12:16:24.057Z,8.70
2023-04-27T12:19:16.282Z,4.50
2023-04-27T12:22:08.431Z,6.30
2023-04-27T12:25:00.423Z,8.10
2023-04-27T12:27:52.387Z,8.70
2023-04-27T12:30:44.531Z,6.60
2023-04-27T12:33:37.203Z,5.90
2023-04-27T12:36:29.493Z,7.10
2023-04-27T12:39:19.721Z,16.80
2023-04-27T12:42:11.810Z,7.80
2023-04-27T12:45:04.614Z,10.70
2023-04-27T12:48:03.168Z,7.90
2023-04-27T12:50:55.746Z,8.90
2023-04-27T12:53:48.174Z,9.40
2023-04-27T12:56:42.138Z,9.70
2023-04-27T12:59:34.229Z,5.90
2023-04-27T13:02:27.635Z,21.50
2023-04-27T13:05:20.001Z,6.80
2023-04-27T13:08:11.969Z,7.70
2023-04-27T13:10:46.962Z,5.70
2023-04-27T13:13:38.933Z,7.00
2023-04-27T13:16:31.385Z,4.60
2023-04-27T13:19:14.973Z,5.90
2023-04-27T13:22:09.674Z,18.90
2023-04-27T13:25:01.679Z,5.60
2023-04-27T13:27:36.548Z,4.40
2023-04-27T13:30:12.546Z,6.70
2023-04-27T13:32:47.043Z,4.40
2023-04-27T13:35:39.434Z,6.60
2023-04-27T13:38:31.457Z,4.60
2023-04-27T13:41:23.482Z,3.30
2023-04-27T13:44:16.458Z,4.40
2023-04-27T13:47:08.670Z,4.80
2023-04-27T13:49:50.972Z,5.20
2023-04-27T13:52:43.003Z,4.60
2023-04-27T13:55:20.124Z,7.80
2023-04-27T13:58:13.284Z,7.20
2023-04-27T14:00:47.921Z,6.00
2023-04-27T14:03:42.692Z,7.40
2023-04-27T14:06:36.100Z,4.30
2023-04-27T14:09:28.145Z,5.90
2023-04-27T14:12:20.582Z,10.50
2023-04-27T14:15:13.481Z,6.10
2023-04-27T14:17:48.043Z,6.20
2023-04-27T14:20:42.333Z,4.00
2023-04-27T14:23:34.900Z,3.70
2023-04-27T14:26:26.950Z,4.70
2023-04-27T14:29:19.538Z,6.40
2023-04-27T14:32:11.879Z,4.50
2023-04-27T14:34:54.524Z,4.80
2023-04-27T14:37:46.530Z,4.40
2023-04-27T14:40:38.574Z,3.70
2023-04-27T14:43:31.740Z,5.00
2023-04-27T14:46:24.023Z,5.80
2023-04-27T14:48:56.165Z,6.60
2023-04-27T14:51:48.282Z,7.20
2023-04-27T14:54:41.588Z,5.00
2023-04-27T14:57:33.625Z,4.50
2023-04-27T15:00:25.735Z,4.40
2023-04-27T15:03:17.998Z,4.30
2023-04-27T15:06:10.446Z,5.40
2023-04-27T15:09:02.390Z,6.30
2023-04-27T15:11:54.363Z,5.40
2023-04-27T15:14:46.331Z,4.80
2023-04-27T15:17:38.323Z,6.80
2023-04-27T15:20:30.479Z,6.50
2023-04-27T15:23:10.965Z,6.90
2023-04-27T15:26:03.180Z,6.70
2023-04-27T15:28:55.469Z,5.40
2023-04-27T15:31:50.113Z,4.60
2023-04-27T15:34:22.261Z,6.40
2023-04-27T15:37:14.254Z,5.00
2023-04-27T15:40:08.762Z,5.40
2023-04-27T15:42:51.691Z,5.20
2023-04-27T15:45:44.734Z,5.00
2023-04-27T15:48:36.712Z,5.10
2023-04-27T15:51:28.676Z,6.20
2023-04-27T15:54:06.203Z,6.80
2023-04-27T15:57:01.094Z,6.20
2023-04-27T15:59:53.095Z,4.90
2023-04-27T16:02:46.345Z,7.00
2023-04-27T16:05:38.579Z,7.80
2023-04-27T16:08:32.307Z,5.50
2023-04-27T16:11:24.312Z,6.20
2023-04-27T16:14:16.364Z,5.30
2023-04-27T16:17:08.461Z,7.30
2023-04-27T16:20:01.117Z,4.70
2023-04-27T16:22:36.092Z,4.00
2023-04-27T16:25:28.273Z,4.20
2023-04-27T16:28:20.585Z,6.10
2023-04-27T16:31:13.152Z,5.00
2023-04-27T16:34:05.090Z,4.40
2023-04-27T16:36:57.031Z,4.60
2023-04-27T16:39:49.067Z,4.20
2023-04-27T16:42:31.254Z,4.50
2023-04-27T16:45:23.419Z,5.00
2023-04-27T16:48:15.490Z,4.90
2023-04-27T16:51:07.907Z,7.60
2023-04-27T16:53:57.280Z,3.60
2023-04-27T16:56:50.120Z,3.50
2023-04-27T16:59:42.181Z,6.10
2023-04-27T17:02:34.331Z,5.60
2023-04-27T17:05:26.510Z,5.60
2023-04-27T17:08:05.460Z,8.20
2023-04-27T17:10:57.670Z,5.50
2023-04-27T17:13:50.594Z,5.20
2023-04-27T17:16:42.595Z,4.30
2023-04-27T17:19:34.616Z,7.40
2023-04-27T17:22:26.980Z,5.50
2023-04-27T17:25:18.938Z,6.80
2023-04-27T17:28:10.932Z,5.30
2023-04-27T17:31:03.274Z,7.50
2023-04-27T17:33:55.621Z,7.80
2023-04-27T17:36:48.286Z,5.70
2023-04-27T17:39:40.293Z,8.40
2023-04-27T17:42:32.272Z,11.00
2023-04-27T17:45:26.434Z,10.70
2023-04-27T17:48:18.523Z,8.00
2023-04-27T17:51:10.703Z,16.10
2023-04-27T17:54:02.684Z,31.30
2023-04-27T17:56:54.672Z,27.10
2023-04-27T17:59:46.599Z,22.10
2023-04-27T18:02:39.068Z,21.50
2023-04-27T18:05:31.319Z,24.90
2023-04-27T18:08:23.322Z,19.30
2023-04-27T18:11:06.916Z,20.80
2023-04-27T18:13:59.415Z,17.00
2023-04-27T18:16:51.378Z,16.60
2023-04-27T18:19:32.252Z,15.50
2023-04-27T18:22:24.534Z,14.70
2023-04-27T18:25:16.508Z,15.70
2023-04-27T18:28:08.781Z,12.00
2023-04-27T18:31:00.739Z,12.40
2023-04-27T18:33:52.851Z,13.20
2023-04-27T18:36:48.028Z,15.40
2023-04-27T18:39:41.544Z,13.70
2023-04-27T18:42:33.540Z,16.40
2023-04-27T18:45:25.531Z,16.20
2023-04-27T18:48:17.463Z,17.00
2023-04-27T18:51:09.492Z,21.90
2023-04-27T18:54:01.557Z,24.40
2023-04-27T18:56:53.914Z,25.30
2023-04-27T18:59:46.132Z,22.80
2023-04-27T19:02:38.209Z,27.80
2023-04-27T19:05:26.701Z,22.90
2023-04-27T19:08:01.435Z,17.20
2023-04-27T19:10:54.490Z,17.20
2023-04-27T19:13:46.492Z,20.80
2023-04-27T19:16:38.679Z,22.20
2023-04-27T19:19:30.923Z,23.80
2023-04-27T19:22:22.958Z,21.80
2023-04-27T19:25:15.077Z,23.30
2023-04-27T19:28:07.842Z,27.60
2023-04-27T19:31:00.942Z,26.00
2023-04-27T19:33:55.321Z,21.70
2023-04-27T19:36:50.069Z,23.50
2023-04-27T19:39:42.287Z,22.90
2023-04-27T19:42:34.220Z,21.20
2023-04-27T19:45:26.387Z,26.10
2023-04-27T19:48:01.184Z,23.50
2023-04-27T19:50:54.674Z,23.20
2023-04-27T19:53:37.893Z,23.30
2023-04-27T19:56:29.953Z,25.30
2023-04-27T19:59:22.030Z,26.70
2023-04-27T20:02:14.136Z,31.40
2023-04-27T20:05:07.448Z,33.90
2023-04-27T20:07:59.731Z,38.90
2023-04-27T20:10:51.756Z,36.50
2023-04-27T20:13:44.135Z,32.40
2023-04-27T20:16:36.203Z,28.40
2023-04-27T20:19:28.247Z,31.00
2023-04-27T20:22:20.415Z,29.00
2023-04-27T20:25:13.980Z,30.90
2023-04-27T20:27:51.292Z,31.50
2023-04-27T20:30:43.261Z,37.30
2023-04-27T20:33:35.738Z,42.50
2023-04-27T20:36:27.742Z,36.00
2023-04-27T20:39:19.956Z,41.70
2023-04-27T20:42:12.508Z,45.00
2023-04-27T20:45:05.485Z,43.00
2023-04-27T20:47:58.101Z,37.60
2023-04-27T20:50:50.794Z,39.70
2023-04-27T20:53:42.781Z,42.60
2023-04-27T20:56:34.894Z,35.40
2023-04-27T20:59:27.180Z,39.90
2023-04-27T21:02:20.175Z,41.30
2023-04-27T21:05:12.518Z,35.90
2023-04-27T21:08:04.676Z,41.20
2023-04-27T21:10:57.220Z,43.90
2023-04-27T21:13:34.272Z,41.10
2023-04-27T21:16:26.285Z,46.20
2023-04-27T21:19:18.410Z,50.90
2023-04-27T21:22:10.384Z,56.80
2023-04-27T21:25:02.684Z,51.90
2023-04-27T21:27:54.618Z,50.40
2023-04-27T21:30:46.646Z,53.30
2023-04-27T21:33:39.240Z,56.20
2023-04-27T21:36:32.890Z,53.70
2023-04-27T21:39:24.928Z,55.90
2023-04-27T21:42:16.905Z,59.60
2023-04-27T21:45:10.945Z,52.60
2023-04-27T21:48:03.283Z,60.70
2023-04-27T21:50:55.249Z,54.70
2023-04-27T21:53:47.225Z,53.60
2023-04-27T21:56:39.597Z,53.90
2023-04-27T21:59:31.653Z,53.80
2023-04-27T22:02:23.829Z,56.50
2023-04-27T22:05:04.733Z,51.00
2023-04-27T22:07:58.088Z,55.20
2023-04-27T22:10:50.154Z,60.40
2023-04-27T22:13:33.270Z,61.00
2023-04-27T22:16:14.200Z,55.80
2023-04-27T22:19:06.239Z,52.80
2023-04-27T22:21:58.200Z,47.40
2023-04-27T22:24:50.160Z,55.90
2023-04-27T22:27:45.197Z,51.80
2023-04-27T22:30:37.897Z,50.40
2023-04-27T22:33:29.985Z,53.00
2023-04-27T22:36:22.116Z,53.20
2023-04-27T22:39:14.330Z,51.50
2023-04-27T22:42:06.736Z,51.30
2023-04-27T22:44:58.701Z,53.70
2023-04-27T22:47:50.901Z,52.00
2023-04-27T22:50:43.020Z,56.00
2023-04-27T22:53:35.056Z,55.40
2023-04-27T22:56:27.069Z,58.30
2023-04-27T22:59:22.677Z,53.80
2023-04-27T23:01:57.417Z,57.50
2023-04-27T23:04:49.520Z,54.60
2023-04-27T23:07:42.847Z,48.10
2023-04-27T23:10:38.801Z,47.90
2023-04-27T23:13:31.562Z,52.20
2023-04-27T23:16:23.635Z,45.50
2023-04-27T23:19:15.798Z,51.30
2023-04-27T23:22:07.802Z,52.30
2023-04-27T23:24:59.740Z,48.80
2023-04-27T23:27:49.351Z,49.70
2023-04-27T23:30:43.570Z,48.80
2023-04-27T23:33:35.806Z,47.30
2023-04-27T23:36:28.161Z,50.50
2023-04-27T23:39:20.217Z,45.10
2023-04-27T23:42:12.188Z,39.90
2023-04-27T23:45:04.959Z,43.00
2023-04-27T23:47:59.440Z,47.90
2023-04-27T23:50:59.014Z,40.40
2023-04-27T23:53:51.009Z,43.80
2023-04-27T23:56:42.989Z,49.40
